sensor_id;sensor_type;location;lat;lon;timestamp;P1;durP1;ratioP1;P2;durP2;ratioP2
56321;SDS011;42227;6.376;-10.782;2023-05-10T00:00:21;12.75;;;4.30;;
56321;SDS011;42227;6.376;-10.782;2023-05-10T00:02:51;7.15;;;3.30;;
56321;SDS011;42227;6.376;-10.782;2023-05-10T00:05:20;5.68;;;4.13;;
56321;SDS011;42227;6.376;-10.782;2023-05-10T00:07:48;19.95;;;4.63;;
56321;SDS011;42227;6.376;-10.782;2023-05-10T00:10:16;6.97;;;5.85;;
56321;SDS011;42227;6.376;-10.782;2023-05-10T00:12:45;10.85;;;4.78;;
56321;SDS011;42227;6.376;-10.782;2023-05-10T00:15:13;9.00;;;4.60;;
56321;SDS011;42227;6.376;-10.782;2023-05-10T00:17:41;9.15;;;3.95;;
56321;SDS011;42227;6.376;-10.782;2023-05-10T00:20:10;5.72;;;3.65;;
56321;SDS011;42227;6.376;-10.782;2023-05-10T00:22:38;11.38;;;4.85;;
56321;SDS011;42227;6.376;-10.782;2023-05-10T00:25:07;7.03;;;3.35;;
56321;SDS011;42227;6.376;-10.782;2023-05-10T00:27:36;5.95;;;3.95;;
56321;SDS011;42227;6.376;-10.782;2023-05-10T00:32:36;7.72;;;3.28;;
56321;SDS011;42227;6.376;-10.782;2023-05-10T00:35:04;10.05;;;4.47;;
56321;SDS011;42227;6.376;-10.782;2023-05-10T00:37:33;7.82;;;4.65;;
56321;SDS011;42227;6.376;-10.782;2023-05-10T00:40:01;9.52;;;4.07;;
56321;SDS011;42227;6.376;-10.782;2023-05-10T00:42:30;11.88;;;4.40;;
56321;SDS011;42227;6.376;-10.782;2023-05-10T00:44:58;12.05;;;4.47;;
56321;SDS011;42227;6.376;-10.782;2023-05-10T00:47:27;8.18;;;3.13;;
56321;SDS011;42227;6.376;-10.782;2023-05-10T00:49:56;4.50;;;3.05;;
56321;SDS011;42227;6.376;-10.782;2023-05-10T00:52:24;8.80;;;3.88;;
56321;SDS011;42227;6.376;-10.782;2023-05-10T00:54:53;6.68;;;4.07;;
56321;SDS011;42227;6.376;-10.782;2023-05-10T00:57:22;9.88;;;5.60;;
56321;SDS011;42227;6.376;-10.782;2023-05-10T00:59:51;5.22;;;3.85;;
56321;SDS011;42227;6.376;-10.782;2023-05-10T01:02:19;6.05;;;4.03;;
56321;SDS011;42227;6.376;-10.782;2023-05-10T01:04:48;7.68;;;3.95;;
56321;SDS011;42227;6.376;-10.782;2023-05-10T01:07:17;7.25;;;4.63;;
56321;SDS011;42227;6.376;-10.782;2023-05-10T01:09:45;7.75;;;4.53;;
56321;SDS011;42227;6.376;-10.782;2023-05-10T01:12:14;34.42;;;8.75;;
56321;SDS011;42227;6.376;-10.782;2023-05-10T01:14:43;25.73;;;8.82;;
56321;SDS011;42227;6.376;-10.782;2023-05-10T01:17:11;35.20;;;10.60;;
56321;SDS011;42227;6.376;-10.782;2023-05-10T01:19:41;43.25;;;12.55;;
56321;SDS011;42227;6.376;-10.782;2023-05-10T01:30:35;22.55;;;8.75;;
56321;SDS011;42227;6.376;-10.782;2023-05-10T01:33:11;16.92;;;9.05;;
56321;SDS011;42227;6.376;-10.782;2023-05-10T01:39:16;32.90;;;11.15;;
56321;SDS011;42227;6.376;-10.782;2023-05-10T01:41:48;26.77;;;11.15;;
56321;SDS011;42227;6.376;-10.782;2023-05-10T01:46:57;27.10;;;9.57;;
56321;SDS011;42227;6.376;-10.782;2023-05-10T01:49:37;22.77;;;11.25;;
56321;SDS011;42227;6.376;-10.782;2023-05-10T01:52:17;26.88;;;11.88;;
56321;SDS011;42227;6.376;-10.782;2023-05-10T01:57:20;23.38;;;8.52;;
56321;SDS011;42227;6.376;-10.782;2023-05-10T01:59:53;23.38;;;9.75;;
56321;SDS011;42227;6.376;-10.782;2023-05-10T02:02:23;33.83;;;9.73;;
56321;SDS011;42227;6.376;-10.782;2023-05-10T02:04:53;19.88;;;10.20;;
56321;SDS011;42227;6.376;-10.782;2023-05-10T02:07:23;27.02;;;9.73;;
56321;SDS011;42227;6.376;-10.782;2023-05-10T02:09:52;26.35;;;8.25;;
56321;SDS011;42227;6.376;-10.782;2023-05-10T02:12:20;27.65;;;8.65;;
56321;SDS011;42227;6.376;-10.782;2023-05-10T02:14:51;16.23;;;7.30;;
56321;SDS011;42227;6.376;-10.782;2023-05-10T02:17:21;26.05;;;7.15;;
56321;SDS011;42227;6.376;-10.782;2023-05-10T02:19:52;17.63;;;7.18;;
56321;SDS011;42227;6.376;-10.782;2023-05-10T02:22:22;28.20;;;9.65;;
56321;SDS011;42227;6.376;-10.782;2023-05-10T02:24:56;13.38;;;6.57;;
56321;SDS011;42227;6.376;-10.782;2023-05-10T02:27:27;17.70;;;7.63;;
56321;SDS011;42227;6.376;-10.782;2023-05-10T02:29:56;22.48;;;8.50;;
56321;SDS011;42227;6.376;-10.782;2023-05-10T02:32:26;20.90;;;6.43;;
56321;SDS011;42227;6.376;-10.782;2023-05-10T02:34:56;19.85;;;7.78;;
56321;SDS011;42227;6.376;-10.782;2023-05-10T02:37:26;19.75;;;9.00;;
56321;SDS011;42227;6.376;-10.782;2023-05-10T02:39:55;22.10;;;6.70;;
56321;SDS011;42227;6.376;-10.782;2023-05-10T02:42:26;22.75;;;7.32;;
56321;SDS011;42227;6.376;-10.782;2023-05-10T02:44:56;18.55;;;6.97;;
56321;SDS011;42227;6.376;-10.782;2023-05-10T02:47:28;17.83;;;7.25;;
56321;SDS011;42227;6.376;-10.782;2023-05-10T02:49:57;21.55;;;8.68;;
56321;SDS011;42227;6.376;-10.782;2023-05-10T02:52:27;30.98;;;9.90;;
56321;SDS011;42227;6.376;-10.782;2023-05-10T02:55:03;16.52;;;8.55;;
56321;SDS011;42227;6.376;-10.782;2023-05-10T02:57:33;39.17;;;20.80;;
56321;SDS011;42227;6.376;-10.782;2023-05-10T03:00:06;37.97;;;22.13;;
56321;SDS011;42227;6.376;-10.782;2023-05-10T03:02:34;31.80;;;16.52;;
56321;SDS011;42227;6.376;-10.782;2023-05-10T03:05:03;33.63;;;15.68;;
56321;SDS011;42227;6.376;-10.782;2023-05-10T03:07:33;26.38;;;13.75;;
56321;SDS011;42227;6.376;-10.782;2023-05-10T03:10:02;24.40;;;9.77;;
56321;SDS011;42227;6.376;-10.782;2023-05-10T03:20:49;18.42;;;7.50;;
56321;SDS011;42227;6.376;-10.782;2023-05-10T03:23:30;23.13;;;7.20;;
56321;SDS011;42227;6.376;-10.782;2023-05-10T03:26:07;20.35;;;7.90;;
56321;SDS011;42227;6.376;-10.782;2023-05-10T03:28:35;18.67;;;7.32;;
56321;SDS011;42227;6.376;-10.782;2023-05-10T03:31:04;21.63;;;8.43;;
56321;SDS011;42227;6.376;-10.782;2023-05-10T03:33:34;23.00;;;8.05;;
56321;SDS011;42227;6.376;-10.782;2023-05-10T03:36:02;21.13;;;8.52;;
56321;SDS011;42227;6.376;-10.782;2023-05-10T03:38:31;16.23;;;8.23;;
56321;SDS011;42227;6.376;-10.782;2023-05-10T03:40:59;20.15;;;7.97;;
56321;SDS011;42227;6.376;-10.782;2023-05-10T03:43:27;29.35;;;9.35;;
56321;SDS011;42227;6.376;-10.782;2023-05-10T03:45:55;19.05;;;9.13;;
56321;SDS011;42227;6.376;-10.782;2023-05-10T03:48:24;25.20;;;8.45;;
56321;SDS011;42227;6.376;-10.782;2023-05-10T03:50:52;18.88;;;8.02;;
56321;SDS011;42227;6.376;-10.782;2023-05-10T03:53:20;22.40;;;8.43;;
56321;SDS011;42227;6.376;-10.782;2023-05-10T03:55:49;21.48;;;8.75;;
56321;SDS011;42227;6.376;-10.782;2023-05-10T03:58:17;19.00;;;8.07;;
56321;SDS011;42227;6.376;-10.782;2023-05-10T04:00:45;21.55;;;8.77;;
56321;SDS011;42227;6.376;-10.782;2023-05-10T04:03:14;23.42;;;10.02;;
56321;SDS011;42227;6.376;-10.782;2023-05-10T04:05:42;19.33;;;8.75;;
56321;SDS011;42227;6.376;-10.782;2023-05-10T04:08:11;17.33;;;9.20;;
56321;SDS011;42227;6.376;-10.782;2023-05-10T04:10:39;18.92;;;8.23;;
56321;SDS011;42227;6.376;-10.782;2023-05-10T04:13:07;21.65;;;9.30;;
56321;SDS011;42227;6.376;-10.782;2023-05-10T04:15:36;23.55;;;9.52;;
56321;SDS011;42227;6.376;-10.782;2023-05-10T04:18:04;17.90;;;7.70;;
56321;SDS011;42227;6.376;-10.782;2023-05-10T04:20:34;19.92;;;8.57;;
56321;SDS011;42227;6.376;-10.782;2023-05-10T04:23:02;27.67;;;9.55;;
56321;SDS011;42227;6.376;-10.782;2023-05-10T04:25:33;16.98;;;9.02;;
56321;SDS011;42227;6.376;-10.782;2023-05-10T04:28:01;16.65;;;9.00;;
56321;SDS011;42227;6.376;-10.782;2023-05-10T04:30:30;19.23;;;8.65;;
56321;SDS011;42227;6.376;-10.782;2023-05-10T04:32:58;24.27;;;11.90;;
56321;SDS011;42227;6.376;-10.782;2023-05-10T04:35:26;19.17;;;9.77;;
56321;SDS011;42227;6.376;-10.782;2023-05-10T04:37:55;22.80;;;9.45;;
56321;SDS011;42227;6.376;-10.782;2023-05-10T04:40:23;26.83;;;9.30;;
56321;SDS011;42227;6.376;-10.782;2023-05-10T04:42:51;22.10;;;13.35;;
56321;SDS011;42227;6.376;-10.782;2023-05-10T04:45:20;26.50;;;10.95;;
56321;SDS011;42227;6.376;-10.782;2023-05-10T04:47:48;16.05;;;8.45;;
56321;SDS011;42227;6.376;-10.782;2023-05-10T04:50:16;19.17;;;7.15;;
56321;SDS011;42227;6.376;-10.782;2023-05-10T04:52:45;17.23;;;7.45;;
56321;SDS011;42227;6.376;-10.782;2023-05-10T04:55:13;19.73;;;7.50;;
56321;SDS011;42227;6.376;-10.782;2023-05-10T04:57:41;19.83;;;8.35;;
56321;SDS011;42227;6.376;-10.782;2023-05-10T05:00:10;22.83;;;7.22;;
56321;SDS011;42227;6.376;-10.782;2023-05-10T05:02:41;16.80;;;6.82;;
56321;SDS011;42227;6.376;-10.782;2023-05-10T05:07:39;17.17;;;7.70;;
56321;SDS011;42227;6.376;-10.782;2023-05-10T05:10:08;14.27;;;5.40;;
56321;SDS011;42227;6.376;-10.782;2023-05-10T05:12:36;15.00;;;7.25;;
56321;SDS011;42227;6.376;-10.782;2023-05-10T05:15:05;16.52;;;8.15;;
56321;SDS011;42227;6.376;-10.782;2023-05-10T05:17:35;19.15;;;8.82;;
56321;SDS011;42227;6.376;-10.782;2023-05-10T05:20:04;16.00;;;8.60;;
56321;SDS011;42227;6.376;-10.782;2023-05-10T05:22:33;34.97;;;10.45;;
56321;SDS011;42227;6.376;-10.782;2023-05-10T05:25:03;23.92;;;10.98;;
56321;SDS011;42227;6.376;-10.782;2023-05-10T05:27:31;20.38;;;9.55;;
56321;SDS011;42227;6.376;-10.782;2023-05-10T05:30:00;27.02;;;9.07;;
56321;SDS011;42227;6.376;-10.782;2023-05-10T05:32:28;30.60;;;14.30;;
56321;SDS011;42227;6.376;-10.782;2023-05-10T05:34:56;34.05;;;14.27;;
56321;SDS011;42227;6.376;-10.782;2023-05-10T05:37:25;27.23;;;13.35;;
56321;SDS011;42227;6.376;-10.782;2023-05-10T05:39:53;29.75;;;14.80;;
56321;SDS011;42227;6.376;-10.782;2023-05-10T05:42:21;31.30;;;15.38;;
56321;SDS011;42227;6.376;-10.782;2023-05-10T05:44:49;28.85;;;16.58;;
56321;SDS011;42227;6.376;-10.782;2023-05-10T05:47:18;44.38;;;16.70;;
56321;SDS011;42227;6.376;-10.782;2023-05-10T05:49:46;33.95;;;11.88;;
56321;SDS011;42227;6.376;-10.782;2023-05-10T05:52:14;41.15;;;15.68;;
56321;SDS011;42227;6.376;-10.782;2023-05-10T05:54:42;28.48;;;15.43;;
56321;SDS011;42227;6.376;-10.782;2023-05-10T05:57:10;26.58;;;12.50;;
56321;SDS011;42227;6.376;-10.782;2023-05-10T05:59:39;36.65;;;13.68;;
56321;SDS011;42227;6.376;-10.782;2023-05-10T06:02:09;33.90;;;13.82;;
56321;SDS011;42227;6.376;-10.782;2023-05-10T06:04:37;34.22;;;16.35;;
56321;SDS011;42227;6.376;-10.782;2023-05-10T06:07:10;26.00;;;12.90;;
56321;SDS011;42227;6.376;-10.782;2023-05-10T06:09:38;40.78;;;15.80;;
56321;SDS011;42227;6.376;-10.782;2023-05-10T06:12:06;28.33;;;11.13;;
56321;SDS011;42227;6.376;-10.782;2023-05-10T06:14:35;28.83;;;12.60;;
56321;SDS011;42227;6.376;-10.782;2023-05-10T06:17:03;29.38;;;9.77;;
56321;SDS011;42227;6.376;-10.782;2023-05-10T06:19:32;17.45;;;9.25;;
56321;SDS011;42227;6.376;-10.782;2023-05-10T06:22:00;29.42;;;11.15;;
56321;SDS011;42227;6.376;-10.782;2023-05-10T06:24:28;22.60;;;9.27;;
56321;SDS011;42227;6.376;-10.782;2023-05-10T06:26:57;27.00;;;10.23;;
56321;SDS011;42227;6.376;-10.782;2023-05-10T06:29:25;20.63;;;9.10;;
56321;SDS011;42227;6.376;-10.782;2023-05-10T06:31:54;19.63;;;9.40;;
56321;SDS011;42227;6.376;-10.782;2023-05-10T06:34:22;14.05;;;7.95;;
56321;SDS011;42227;6.376;-10.782;2023-05-10T06:36:50;18.77;;;9.95;;
56321;SDS011;42227;6.376;-10.782;2023-05-10T06:39:18;23.38;;;10.38;;
56321;SDS011;42227;6.376;-10.782;2023-05-10T06:41:46;18.65;;;8.40;;
56321;SDS011;42227;6.376;-10.782;2023-05-10T06:44:15;19.38;;;9.27;;
56321;SDS011;42227;6.376;-10.782;2023-05-10T06:46:43;17.80;;;10.13;;
56321;SDS011;42227;6.376;-10.782;2023-05-10T06:49:12;16.90;;;10.15;;
56321;SDS011;42227;6.376;-10.782;2023-05-10T06:51:40;22.90;;;8.48;;
56321;SDS011;42227;6.376;-10.782;2023-05-10T06:54:08;17.77;;;9.02;;
56321;SDS011;42227;6.376;-10.782;2023-05-10T06:56:36;23.65;;;9.73;;
56321;SDS011;42227;6.376;-10.782;2023-05-10T06:59:05;21.27;;;8.40;;
56321;SDS011;42227;6.376;-10.782;2023-05-10T07:01:33;17.58;;;8.30;;
56321;SDS011;42227;6.376;-10.782;2023-05-10T07:04:01;19.25;;;8.18;;
56321;SDS011;42227;6.376;-10.782;2023-05-10T07:06:30;15.23;;;8.98;;
56321;SDS011;42227;6.376;-10.782;2023-05-10T07:09:00;18.08;;;10.05;;
56321;SDS011;42227;6.376;-10.782;2023-05-10T07:11:28;18.70;;;10.32;;
56321;SDS011;42227;6.376;-10.782;2023-05-10T07:13:56;25.55;;;9.63;;
56321;SDS011;42227;6.376;-10.782;2023-05-10T07:16:25;22.95;;;9.18;;
56321;SDS011;42227;6.376;-10.782;2023-05-10T07:18:53;12.45;;;7.65;;
56321;SDS011;42227;6.376;-10.782;2023-05-10T07:21:21;18.25;;;8.20;;
56321;SDS011;42227;6.376;-10.782;2023-05-10T07:23:50;16.75;;;9.23;;
56321;SDS011;42227;6.376;-10.782;2023-05-10T07:26:18;23.33;;;10.40;;
56321;SDS011;42227;6.376;-10.782;2023-05-10T07:28:47;18.08;;;9.35;;
56321;SDS011;42227;6.376;-10.782;2023-05-10T07:31:15;22.95;;;11.43;;
56321;SDS011;42227;6.376;-10.782;2023-05-10T07:33:43;17.55;;;9.48;;
56321;SDS011;42227;6.376;-10.782;2023-05-10T07:36:11;33.05;;;11.48;;
56321;SDS011;42227;6.376;-10.782;2023-05-10T07:38:40;22.85;;;10.40;;
56321;SDS011;42227;6.376;-10.782;2023-05-10T07:41:08;15.75;;;9.38;;
56321;SDS011;42227;6.376;-10.782;2023-05-10T07:43:39;23.13;;;11.15;;
56321;SDS011;42227;6.376;-10.782;2023-05-10T07:46:07;22.15;;;11.27;;
56321;SDS011;42227;6.376;-10.782;2023-05-10T07:48:36;14.02;;;9.13;;
56321;SDS011;42227;6.376;-10.782;2023-05-10T07:51:04;19.35;;;9.95;;
56321;SDS011;42227;6.376;-10.782;2023-05-10T07:53:33;16.30;;;9.88;;
56321;SDS011;42227;6.376;-10.782;2023-05-10T07:56:19;22.08;;;9.18;;
56321;SDS011;42227;6.376;-10.782;2023-05-10T07:58:48;17.88;;;9.23;;
56321;SDS011;42227;6.376;-10.782;2023-05-10T08:01:16;21.30;;;10.10;;
56321;SDS011;42227;6.376;-10.782;2023-05-10T08:03:44;19.20;;;7.95;;
56321;SDS011;42227;6.376;-10.782;2023-05-10T08:06:14;16.75;;;8.95;;
56321;SDS011;42227;6.376;-10.782;2023-05-10T08:08:42;14.52;;;7.35;;
56321;SDS011;42227;6.376;-10.782;2023-05-10T08:11:11;17.73;;;8.43;;
56321;SDS011;42227;6.376;-10.782;2023-05-10T08:13:39;22.48;;;9.20;;
56321;SDS011;42227;6.376;-10.782;2023-05-10T08:16:07;19.98;;;7.57;;
56321;SDS011;42227;6.376;-10.782;2023-05-10T08:18:36;14.95;;;8.77;;
56321;SDS011;42227;6.376;-10.782;2023-05-10T08:21:05;15.43;;;8.20;;
56321;SDS011;42227;6.376;-10.782;2023-05-10T08:23:33;21.80;;;8.60;;
56321;SDS011;42227;6.376;-10.782;2023-05-10T08:26:01;18.65;;;8.18;;
56321;SDS011;42227;6.376;-10.782;2023-05-10T08:28:30;16.75;;;9.48;;
56321;SDS011;42227;6.376;-10.782;2023-05-10T08:30:58;15.07;;;8.95;;
56321;SDS011;42227;6.376;-10.782;2023-05-10T08:33:26;19.33;;;8.40;;
56321;SDS011;42227;6.376;-10.782;2023-05-10T08:35:56;25.20;;;9.00;;
56321;SDS011;42227;6.376;-10.782;2023-05-10T08:38:25;21.73;;;7.88;;
56321;SDS011;42227;6.376;-10.782;2023-05-10T08:40:54;19.65;;;9.85;;
56321;SDS011;42227;6.376;-10.782;2023-05-10T08:43:23;10.77;;;7.30;;
56321;SDS011;42227;6.376;-10.782;2023-05-10T08:45:56;17.58;;;8.80;;
56321;SDS011;42227;6.376;-10.782;2023-05-10T08:48:27;25.33;;;9.77;;
56321;SDS011;42227;6.376;-10.782;2023-05-10T08:50:57;12.48;;;8.48;;
56321;SDS011;42227;6.376;-10.782;2023-05-10T08:53:28;16.10;;;7.85;;
56321;SDS011;42227;6.376;-10.782;2023-05-10T08:56:01;20.83;;;7.53;;
56321;SDS011;42227;6.376;-10.782;2023-05-10T08:58:30;22.45;;;8.75;;
56321;SDS011;42227;6.376;-10.782;2023-05-10T09:00:59;27.60;;;14.73;;
56321;SDS011;42227;6.376;-10.782;2023-05-10T09:03:29;13.75;;;10.45;;
56321;SDS011;42227;6.376;-10.782;2023-05-10T09:05:58;18.15;;;10.05;;
56321;SDS011;42227;6.376;-10.782;2023-05-10T09:08:26;17.40;;;8.02;;
56321;SDS011;42227;6.376;-10.782;2023-05-10T09:10:55;12.65;;;6.63;;
56321;SDS011;42227;6.376;-10.782;2023-05-10T09:13:23;19.73;;;8.68;;
56321;SDS011;42227;6.376;-10.782;2023-05-10T09:15:54;18.23;;;10.32;;
56321;SDS011;42227;6.376;-10.782;2023-05-10T09:18:30;17.17;;;9.23;;
56321;SDS011;42227;6.376;-10.782;2023-05-10T09:20:58;31.05;;;10.98;;
56321;SDS011;42227;6.376;-10.782;2023-05-10T09:23:26;16.52;;;7.43;;
56321;SDS011;42227;6.376;-10.782;2023-05-10T09:26:04;24.30;;;8.15;;
56321;SDS011;42227;6.376;-10.782;2023-05-10T09:28:52;20.45;;;7.53;;
56321;SDS011;42227;6.376;-10.782;2023-05-10T09:31:21;18.75;;;8.10;;
56321;SDS011;42227;6.376;-10.782;2023-05-10T09:33:51;18.52;;;9.68;;
56321;SDS011;42227;6.376;-10.782;2023-05-10T09:36:19;17.90;;;8.25;;
56321;SDS011;42227;6.376;-10.782;2023-05-10T09:38:48;20.45;;;7.72;;
56321;SDS011;42227;6.376;-10.782;2023-05-10T09:41:18;13.50;;;7.68;;
56321;SDS011;42227;6.376;-10.782;2023-05-10T09:43:50;21.95;;;8.10;;
56321;SDS011;42227;6.376;-10.782;2023-05-10T09:46:23;18.15;;;9.27;;
56321;SDS011;42227;6.376;-10.782;2023-05-10T09:48:51;17.85;;;7.30;;
56321;SDS011;42227;6.376;-10.782;2023-05-10T09:51:20;20.60;;;8.52;;
56321;SDS011;42227;6.376;-10.782;2023-05-10T09:54:08;19.80;;;8.55;;
56321;SDS011;42227;6.376;-10.782;2023-05-10T09:56:37;18.70;;;9.50;;
56321;SDS011;42227;6.376;-10.782;2023-05-10T09:59:08;17.00;;;9.07;;
56321;SDS011;42227;6.376;-10.782;2023-05-10T10:01:38;15.25;;;8.93;;
56321;SDS011;42227;6.376;-10.782;2023-05-10T10:04:08;14.45;;;8.25;;
56321;SDS011;42227;6.376;-10.782;2023-05-10T10:06:39;15.45;;;7.57;;
56321;SDS011;42227;6.376;-10.782;2023-05-10T10:09:08;20.40;;;8.93;;
56321;SDS011;42227;6.376;-10.782;2023-05-10T10:11:37;19.40;;;9.27;;
56321;SDS011;42227;6.376;-10.782;2023-05-10T10:14:05;14.63;;;8.65;;
56321;SDS011;42227;6.376;-10.782;2023-05-10T10:21:26;18.38;;;9.80;;
56321;SDS011;42227;6.376;-10.782;2023-05-10T10:23:55;16.88;;;9.48;;
56321;SDS011;42227;6.376;-10.782;2023-05-10T10:26:23;21.10;;;8.68;;
56321;SDS011;42227;6.376;-10.782;2023-05-10T10:31:55;20.63;;;10.32;;
56321;SDS011;42227;6.376;-10.782;2023-05-10T10:34:40;23.35;;;11.57;;
56321;SDS011;42227;6.376;-10.782;2023-05-10T10:37:09;22.75;;;11.18;;
56321;SDS011;42227;6.376;-10.782;2023-05-10T10:39:37;26.38;;;11.45;;
56321;SDS011;42227;6.376;-10.782;2023-05-10T10:42:05;19.20;;;9.02;;
56321;SDS011;42227;6.376;-10.782;2023-05-10T10:44:35;21.08;;;8.82;;
56321;SDS011;42227;6.376;-10.782;2023-05-10T10:52:21;19.23;;;8.10;;
56321;SDS011;42227;6.376;-10.782;2023-05-10T10:57:42;19.27;;;8.30;;
56321;SDS011;42227;6.376;-10.782;2023-05-10T11:05:49;13.60;;;6.72;;
56321;SDS011;42227;6.376;-10.782;2023-05-10T11:08:26;14.85;;;8.25;;
56321;SDS011;42227;6.376;-10.782;2023-05-10T11:13:30;14.27;;;7.40;;
56321;SDS011;42227;6.376;-10.782;2023-05-10T11:16:21;16.63;;;8.98;;
56321;SDS011;42227;6.376;-10.782;2023-05-10T11:19:04;42.72;;;25.75;;
56321;SDS011;42227;6.376;-10.782;2023-05-10T11:24:19;43.60;;;23.42;;
56321;SDS011;42227;6.376;-10.782;2023-05-10T11:26:50;23.90;;;17.42;;
56321;SDS011;42227;6.376;-10.782;2023-05-10T11:29:18;26.83;;;11.10;;
56321;SDS011;42227;6.376;-10.782;2023-05-10T11:31:47;15.23;;;8.20;;
56321;SDS011;42227;6.376;-10.782;2023-05-10T11:34:23;29.20;;;16.95;;
56321;SDS011;42227;6.376;-10.782;2023-05-10T11:36:56;41.03;;;21.77;;
56321;SDS011;42227;6.376;-10.782;2023-05-10T11:39:26;24.58;;;12.80;;
56321;SDS011;42227;6.376;-10.782;2023-05-10T11:41:55;25.88;;;13.57;;
56321;SDS011;42227;6.376;-10.782;2023-05-10T11:44:31;30.25;;;11.77;;
56321;SDS011;42227;6.376;-10.782;2023-05-10T11:47:00;16.65;;;8.40;;
56321;SDS011;42227;6.376;-10.782;2023-05-10T11:49:29;16.38;;;9.88;;
56321;SDS011;42227;6.376;-10.782;2023-05-10T11:52:04;18.88;;;8.77;;
56321;SDS011;42227;6.376;-10.782;2023-05-10T11:54:36;19.30;;;10.20;;
56321;SDS011;42227;6.376;-10.782;2023-05-10T11:57:25;15.43;;;8.13;;
56321;SDS011;42227;6.376;-10.782;2023-05-10T11:59:56;15.02;;;8.50;;
56321;SDS011;42227;6.376;-10.782;2023-05-10T12:02:25;15.63;;;7.15;;
56321;SDS011;42227;6.376;-10.782;2023-05-10T12:04:54;16.42;;;9.20;;
56321;SDS011;42227;6.376;-10.782;2023-05-10T12:07:23;12.30;;;6.82;;
56321;SDS011;42227;6.376;-10.782;2023-05-10T12:10:09;26.75;;;6.50;;
56321;SDS011;42227;6.376;-10.782;2023-05-10T12:12:40;23.48;;;6.97;;
56321;SDS011;42227;6.376;-10.782;2023-05-10T12:15:19;13.75;;;6.13;;
56321;SDS011;42227;6.376;-10.782;2023-05-10T12:17:50;12.02;;;6.25;;
56321;SDS011;42227;6.376;-10.782;2023-05-10T12:20:22;16.17;;;5.78;;
56321;SDS011;42227;6.376;-10.782;2023-05-10T12:22:52;16.50;;;6.53;;
56321;SDS011;42227;6.376;-10.782;2023-05-10T12:25:29;9.77;;;6.55;;
56321;SDS011;42227;6.376;-10.782;2023-05-10T12:27:59;14.00;;;5.90;;
56321;SDS011;42227;6.376;-10.782;2023-05-10T12:30:31;14.77;;;5.97;;
56321;SDS011;42227;6.376;-10.782;2023-05-10T12:33:01;12.80;;;5.63;;
56321;SDS011;42227;6.376;-10.782;2023-05-10T12:35:51;14.25;;;6.15;;
56321;SDS011;42227;6.376;-10.782;2023-05-10T12:38:26;16.65;;;6.55;;
56321;SDS011;42227;6.376;-10.782;2023-05-10T12:41:09;15.93;;;6.72;;
56321;SDS011;42227;6.376;-10.782;2023-05-10T12:43:39;16.17;;;6.38;;
56321;SDS011;42227;6.376;-10.782;2023-05-10T12:46:08;14.93;;;5.57;;
56321;SDS011;42227;6.376;-10.782;2023-05-10T12:48:42;7.25;;;4.95;;
56321;SDS011;42227;6.376;-10.782;2023-05-10T12:51:11;12.95;;;4.43;;
56321;SDS011;42227;6.376;-10.782;2023-05-10T12:53:39;7.05;;;4.15;;
56321;SDS011;42227;6.376;-10.782;2023-05-10T12:56:12;11.45;;;4.70;;
56321;SDS011;42227;6.376;-10.782;2023-05-10T12:58:43;10.68;;;4.65;;
56321;SDS011;42227;6.376;-10.782;2023-05-10T13:01:13;8.82;;;4.13;;
56321;SDS011;42227;6.376;-10.782;2023-05-10T13:03:42;11.45;;;4.97;;
56321;SDS011;42227;6.376;-10.782;2023-05-10T13:06:10;11.45;;;5.07;;
56321;SDS011;42227;6.376;-10.782;2023-05-10T13:08:38;15.93;;;5.55;;
56321;SDS011;42227;6.376;-10.782;2023-05-10T13:11:07;17.92;;;7.07;;
56321;SDS011;42227;6.376;-10.782;2023-05-10T13:13:35;11.48;;;6.30;;
56321;SDS011;42227;6.376;-10.782;2023-05-10T13:16:03;7.90;;;5.25;;
56321;SDS011;42227;6.376;-10.782;2023-05-10T13:18:32;9.90;;;5.43;;
56321;SDS011;42227;6.376;-10.782;2023-05-10T13:21:00;15.82;;;7.40;;
56321;SDS011;42227;6.376;-10.782;2023-05-10T13:23:30;13.30;;;4.90;;
56321;SDS011;42227;6.376;-10.782;2023-05-10T13:26:03;25.98;;;5.10;;
56321;SDS011;42227;6.376;-10.782;2023-05-10T13:28:32;9.05;;;5.28;;
56321;SDS011;42227;6.376;-10.782;2023-05-10T13:31:00;12.82;;;6.07;;
56321;SDS011;42227;6.376;-10.782;2023-05-10T13:33:29;7.47;;;4.43;;
56321;SDS011;42227;6.376;-10.782;2023-05-10T13:35:57;10.23;;;4.45;;
56321;SDS011;42227;6.376;-10.782;2023-05-10T13:38:27;18.48;;;5.38;;
56321;SDS011;42227;6.376;-10.782;2023-05-10T13:40:55;10.43;;;5.43;;
56321;SDS011;42227;6.376;-10.782;2023-05-10T13:43:24;11.85;;;5.28;;
56321;SDS011;42227;6.376;-10.782;2023-05-10T13:45:52;13.55;;;5.97;;
56321;SDS011;42227;6.376;-10.782;2023-05-10T13:48:20;10.23;;;6.32;;
56321;SDS011;42227;6.376;-10.782;2023-05-10T13:50:48;12.05;;;5.55;;
56321;SDS011;42227;6.376;-10.782;2023-05-10T13:53:17;13.55;;;5.70;;
56321;SDS011;42227;6.376;-10.782;2023-05-10T13:55:45;16.08;;;5.38;;
56321;SDS011;42227;6.376;-10.782;2023-05-10T13:58:14;10.10;;;5.13;;
56321;SDS011;42227;6.376;-10.782;2023-05-10T14:00:42;13.73;;;6.90;;
56321;SDS011;42227;6.376;-10.782;2023-05-10T14:03:10;12.30;;;5.88;;
56321;SDS011;42227;6.376;-10.782;2023-05-10T14:05:42;14.27;;;6.05;;
56321;SDS011;42227;6.376;-10.782;2023-05-10T14:08:11;12.23;;;5.68;;
56321;SDS011;42227;6.376;-10.782;2023-05-10T14:10:39;12.50;;;6.13;;
56321;SDS011;42227;6.376;-10.782;2023-05-10T14:13:07;11.75;;;6.00;;
56321;SDS011;42227;6.376;-10.782;2023-05-10T14:15:36;12.05;;;6.38;;
56321;SDS011;42227;6.376;-10.782;2023-05-10T14:18:04;22.05;;;6.88;;
56321;SDS011;42227;6.376;-10.782;2023-05-10T14:20:33;15.02;;;7.38;;
56321;SDS011;42227;6.376;-10.782;2023-05-10T14:23:01;13.50;;;5.50;;
56321;SDS011;42227;6.376;-10.782;2023-05-10T14:25:29;10.57;;;5.85;;
56321;SDS011;42227;6.376;-10.782;2023-05-10T14:27:57;16.17;;;7.20;;
56321;SDS011;42227;6.376;-10.782;2023-05-10T14:30:26;15.73;;;7.72;;
56321;SDS011;42227;6.376;-10.782;2023-05-10T15:59:25;15.30;;;8.25;;
56321;SDS011;42227;6.376;-10.782;2023-05-10T16:01:53;12.68;;;6.88;;
56321;SDS011;42227;6.376;-10.782;2023-05-10T16:04:22;23.90;;;7.97;;
56321;SDS011;42227;6.376;-10.782;2023-05-10T16:06:50;16.65;;;5.93;;
56321;SDS011;42227;6.376;-10.782;2023-05-10T16:09:18;14.00;;;7.18;;
56321;SDS011;42227;6.376;-10.782;2023-05-10T16:11:47;11.98;;;7.90;;
56321;SDS011;42227;6.376;-10.782;2023-05-10T16:14:17;7.65;;;5.70;;
56321;SDS011;42227;6.376;-10.782;2023-05-10T16:16:46;16.33;;;7.07;;
56321;SDS011;42227;6.376;-10.782;2023-05-10T16:19:14;7.82;;;5.88;;
56321;SDS011;42227;6.376;-10.782;2023-05-10T16:21:43;15.32;;;6.80;;
56321;SDS011;42227;6.376;-10.782;2023-05-10T16:24:11;10.25;;;7.57;;
56321;SDS011;42227;6.376;-10.782;2023-05-10T16:26:39;11.82;;;7.43;;
56321;SDS011;42227;6.376;-10.782;2023-05-10T16:29:07;13.35;;;8.23;;
56321;SDS011;42227;6.376;-10.782;2023-05-10T16:31:36;10.13;;;7.47;;
56321;SDS011;42227;6.376;-10.782;2023-05-10T16:34:04;10.25;;;5.75;;
56321;SDS011;42227;6.376;-10.782;2023-05-10T16:36:32;13.88;;;7.78;;
56321;SDS011;42227;6.376;-10.782;2023-05-10T16:39:01;11.43;;;6.35;;
56321;SDS011;42227;6.376;-10.782;2023-05-10T16:41:32;18.10;;;8.20;;
56321;SDS011;42227;6.376;-10.782;2023-05-10T16:44:01;19.48;;;7.38;;
56321;SDS011;42227;6.376;-10.782;2023-05-10T16:46:29;10.27;;;7.40;;
56321;SDS011;42227;6.376;-10.782;2023-05-10T16:48:58;10.73;;;7.85;;
56321;SDS011;42227;6.376;-10.782;2023-05-10T16:51:26;20.33;;;8.10;;
56321;SDS011;42227;6.376;-10.782;2023-05-10T16:53:55;25.35;;;7.50;;
56321;SDS011;42227;6.376;-10.782;2023-05-10T16:56:23;12.20;;;8.23;;
56321;SDS011;42227;6.376;-10.782;2023-05-10T16:58:51;13.35;;;10.70;;